createdAt,value
2019-05-19T00:00:03.638Z,0.00
2019-05-19T00:01:03.625Z,0.00
2019-05-19T00:02:03.613Z,0.00
2019-05-19T00:03:03.636Z,0.00
2019-05-19T00:04:03.596Z,0.00
2019-05-19T00:05:03.587Z,0.00
2019-05-19T00:06:03.577Z,0.00
2019-05-19T00:07:03.568Z,0.00
2019-05-19T00:08:03.572Z,0.00
2019-05-19T00:09:03.554Z,0.00
2019-05-19T00:10:03.550Z,0.00
2019-05-19T00:11:03.533Z,0.00
2019-05-19T00:12:03.524Z,0.00
2019-05-19T00:13:03.516Z,0.00
2019-05-19T00:14:03.505Z,0.00
2019-05-19T00:15:03.497Z,0.00
2019-05-19T00:16:03.488Z,0.00
2019-05-19T00:17:03.480Z,0.00
2019-05-19T00:18:03.471Z,0.00
2019-05-19T00:19:03.469Z,0.00
2019-05-19T00:20:03.459Z,0.00
2019-05-19T00:21:03.443Z,0.00
2019-05-19T00:22:03.441Z,0.00
2019-05-19T00:23:03.431Z,0.00
2019-05-19T00:24:03.417Z,0.00
2019-05-19T00:25:03.411Z,0.00
2019-05-19T00:26:03.402Z,0.00
2019-05-19T00:27:03.389Z,0.00
2019-05-19T00:28:03.384Z,0.00
2019-05-19T00:29:03.372Z,0.00
2019-05-19T00:30:03.366Z,0.00
2019-05-19T00:31:03.356Z,0.00
2019-05-19T00:32:03.347Z,0.00
2019-05-19T00:33:03.336Z,0.00
2019-05-19T00:34:03.330Z,0.00
2019-05-19T00:35:03.317Z,0.00
2019-05-19T00:36:03.315Z,0.00
2019-05-19T00:37:03.300Z,0.00
2019-05-19T00:38:03.299Z,0.00
2019-05-19T00:39:03.282Z,0.00
2019-05-19T00:40:03.276Z,0.00
2019-05-19T00:41:03.316Z,0.00
2019-05-19T00:42:03.257Z,0.00
2019-05-19T00:43:03.247Z,0.00
2019-05-19T00:44:03.239Z,0.00
2019-05-19T00:45:03.233Z,0.00
2019-05-19T00:46:03.219Z,0.00
2019-05-19T00:47:03.213Z,0.00
2019-05-19T00:48:03.219Z,0.00
2019-05-19T00:49:03.191Z,0.00
2019-05-19T00:50:03.181Z,0.00
2019-05-19T00:51:03.274Z,0.00
2019-05-19T00:52:03.166Z,0.00
2019-05-19T00:53:03.154Z,0.00
2019-05-19T00:54:03.148Z,0.00
2019-05-19T00:55:03.136Z,0.00
2019-05-19T00:56:03.128Z,0.00
2019-05-19T00:57:03.119Z,0.00
2019-05-19T00:58:03.108Z,0.00
2019-05-19T00:59:03.100Z,0.00
2019-05-19T01:00:03.224Z,0.00
2019-05-19T01:01:03.088Z,0.00
2019-05-19T01:02:03.072Z,0.00
2019-05-19T01:03:03.062Z,0.00
2019-05-19T01:04:03.054Z,0.00
2019-05-19T01:05:03.046Z,0.00
2019-05-19T01:06:03.038Z,0.00
2019-05-19T01:07:03.027Z,0.00
2019-05-19T01:08:03.023Z,0.00
2019-05-19T01:09:03.008Z,0.00
2019-05-19T01:10:03.010Z,0.00
2019-05-19T01:11:03.018Z,0.00
2019-05-19T01:12:02.983Z,0.00
2019-05-19T01:13:02.973Z,0.00
2019-05-19T01:14:02.983Z,0.00
2019-05-19T01:15:02.953Z,0.00
2019-05-19T01:16:02.944Z,0.00
2019-05-19T01:17:02.936Z,0.00
2019-05-19T01:18:02.937Z,0.00
2019-05-19T01:19:02.921Z,0.00
2019-05-19T01:20:02.914Z,0.00
2019-05-19T01:21:02.901Z,0.00
2019-05-19T01:22:02.894Z,0.00
2019-05-19T01:23:02.881Z,0.00
2019-05-19T01:24:02.874Z,0.00
2019-05-19T01:25:02.863Z,0.00
2019-05-19T01:26:02.854Z,0.00
2019-05-19T01:27:02.850Z,0.00
2019-05-19T01:28:02.874Z,0.00
2019-05-19T01:29:02.827Z,0.00
2019-05-19T01:30:02.818Z,0.00
2019-05-19T01:31:02.815Z,0.00
2019-05-19T01:32:02.804Z,0.00
2019-05-19T01:33:02.793Z,0.00
2019-05-19T01:34:02.781Z,0.00
2019-05-19T01:35:02.785Z,0.00
2019-05-19T01:36:02.763Z,0.00
2019-05-19T01:37:02.760Z,0.00
2019-05-19T01:38:02.743Z,0.00
2019-05-19T01:39:02.737Z,0.00
2019-05-19T01:40:02.862Z,0.00
2019-05-19T01:41:02.717Z,0.00
2019-05-19T01:42:02.707Z,0.00
2019-05-19T01:43:02.698Z,0.00
2019-05-19T01:44:02.690Z,0.00
2019-05-19T01:45:02.684Z,0.00
2019-05-19T01:46:02.670Z,0.00
2019-05-19T01:47:02.663Z,0.00
2019-05-19T01:48:02.652Z,0.00
2019-05-19T01:49:02.647Z,0.00
2019-05-19T01:50:16.821Z,0.00
2019-05-19T01:51:02.624Z,0.00
2019-05-19T01:52:02.715Z,0.00
2019-05-19T01:53:02.606Z,0.00
2019-05-19T01:54:02.596Z,0.00
2019-05-19T01:55:02.592Z,0.00
2019-05-19T01:56:02.582Z,0.00
2019-05-19T01:57:02.570Z,0.00
2019-05-19T01:58:02.558Z,0.00
2019-05-19T01:59:02.552Z,0.00
2019-05-19T02:00:03.185Z,0.00
2019-05-19T02:01:02.539Z,0.00
2019-05-19T02:02:02.524Z,0.00
2019-05-19T02:03:02.515Z,0.00
2019-05-19T02:04:02.505Z,0.00
2019-05-19T02:05:02.495Z,0.00
2019-05-19T02:06:02.485Z,0.00
2019-05-19T02:07:02.476Z,0.00
2019-05-19T02:08:02.471Z,0.00
2019-05-19T02:09:02.458Z,0.00
2019-05-19T02:10:02.737Z,0.00
2019-05-19T02:11:02.441Z,0.00
2019-05-19T02:12:02.431Z,0.00
2019-05-19T02:13:05.143Z,0.00
2019-05-19T02:14:02.411Z,0.00
2019-05-19T02:15:02.403Z,0.00
2019-05-19T02:16:02.395Z,0.00
2019-05-19T02:17:02.387Z,0.00
2019-05-19T02:18:02.379Z,0.00
2019-05-19T02:19:02.489Z,0.00
2019-05-19T02:20:02.367Z,0.00
2019-05-19T02:21:02.467Z,0.00
2019-05-19T02:22:02.341Z,0.00
2019-05-19T02:23:03.583Z,0.00
2019-05-19T02:24:02.338Z,0.00
2019-05-19T02:25:02.313Z,0.00
2019-05-19T02:26:02.304Z,0.00
2019-05-19T02:27:02.295Z,0.00
2019-05-19T02:28:02.298Z,0.00
2019-05-19T02:29:02.280Z,0.00
2019-05-19T02:30:02.614Z,0.00
2019-05-19T02:31:02.266Z,0.00
2019-05-19T02:32:02.254Z,0.00
2019-05-19T02:33:02.244Z,0.00
2019-05-19T02:34:02.234Z,0.00
2019-05-19T02:35:02.223Z,0.00
2019-05-19T02:36:02.212Z,0.00
2019-05-19T02:37:02.204Z,0.00
2019-05-19T02:38:02.194Z,0.00
2019-05-19T02:39:02.189Z,0.00
2019-05-19T02:40:02.212Z,0.00
2019-05-19T02:41:02.167Z,0.00
2019-05-19T02:42:02.155Z,0.00
2019-05-19T02:43:02.155Z,0.00
2019-05-19T02:44:02.140Z,0.00
2019-05-19T02:45:02.134Z,0.00
2019-05-19T02:46:02.129Z,0.00
2019-05-19T02:47:02.115Z,0.00
2019-05-19T02:48:02.107Z,0.00
2019-05-19T02:49:02.098Z,0.00
2019-05-19T02:50:02.092Z,0.00
2019-05-19T02:51:02.082Z,0.00
2019-05-19T02:52:02.078Z,0.00
2019-05-19T02:53:02.055Z,0.00
2019-05-19T02:54:02.047Z,0.00
2019-05-19T02:55:02.066Z,0.00
2019-05-19T02:56:02.033Z,0.00
2019-05-19T02:57:02.022Z,0.00
2019-05-19T02:58:02.104Z,0.00
2019-05-19T02:59:01.999Z,0.00
2019-05-19T03:00:01.991Z,0.00
2019-05-19T03:01:01.992Z,0.00
2019-05-19T03:02:01.982Z,0.00
2019-05-19T03:03:01.963Z,0.00
2019-05-19T03:04:01.957Z,0.00
2019-05-19T03:05:01.962Z,0.00
2019-05-19T03:06:01.934Z,0.00
2019-05-19T03:07:01.934Z,4.00
2019-05-19T03:08:01.918Z,4.00
2019-05-19T03:09:01.908Z,4.00
2019-05-19T03:10:01.898Z,0.00
2019-05-19T03:11:01.897Z,0.00
2019-05-19T03:12:01.882Z,4.00
2019-05-19T03:13:01.923Z,4.00
2019-05-19T03:14:01.860Z,4.00
2019-05-19T03:15:01.853Z,4.00
2019-05-19T03:16:01.842Z,4.00
2019-05-19T03:17:01.832Z,4.00
2019-05-19T03:18:01.830Z,8.00
2019-05-19T03:19:01.814Z,4.00
2019-05-19T03:20:01.806Z,8.00
2019-05-19T03:21:11.213Z,8.00
2019-05-19T03:22:01.789Z,12.00
2019-05-19T03:23:01.780Z,8.00
2019-05-19T03:24:01.768Z,12.00
2019-05-19T03:25:01.772Z,16.00
2019-05-19T03:26:01.749Z,20.00
2019-05-19T03:27:01.740Z,20.00
2019-05-19T03:28:01.731Z,24.00
2019-05-19T03:29:01.723Z,28.00
2019-05-19T03:30:01.750Z,36.00
2019-05-19T03:31:01.703Z,40.00
2019-05-19T03:32:01.694Z,44.00
2019-05-19T03:33:01.696Z,44.00
2019-05-19T03:34:01.676Z,52.00
2019-05-19T03:35:01.666Z,56.00
2019-05-19T03:36:01.657Z,64.00
2019-05-19T03:37:01.652Z,68.00
2019-05-19T03:38:01.654Z,72.00
2019-05-19T03:39:01.637Z,80.00
2019-05-19T03:40:01.625Z,88.00
2019-05-19T03:41:01.614Z,96.00
2019-05-19T03:42:01.851Z,104.00
2019-05-19T03:43:01.593Z,112.00
2019-05-19T03:44:01.583Z,120.00
2019-05-19T03:45:01.582Z,128.00
2019-05-19T03:46:01.564Z,136.00
2019-05-19T03:47:01.555Z,144.00
2019-05-19T03:48:01.546Z,156.00
2019-05-19T03:49:01.538Z,164.00
2019-05-19T03:50:01.528Z,180.00
2019-05-19T03:51:01.520Z,192.00
2019-05-19T03:52:01.553Z,208.00
2019-05-19T03:53:01.601Z,224.00
2019-05-19T03:54:01.524Z,236.00
2019-05-19T03:55:01.491Z,252.00
2019-05-19T03:56:01.474Z,268.00
2019-05-19T03:57:01.463Z,288.00
2019-05-19T03:58:01.455Z,308.00
2019-05-19T03:59:01.446Z,328.00
2019-05-19T04:00:01.437Z,356.00
2019-05-19T04:01:01.429Z,376.00
2019-05-19T04:02:02.618Z,404.00
2019-05-19T04:03:01.410Z,428.00
2019-05-19T04:04:01.408Z,460.00
2019-05-19T04:05:01.397Z,492.00
2019-05-19T04:06:01.381Z,524.00
2019-05-19T04:07:01.376Z,556.00
2019-05-19T04:08:01.362Z,596.00
2019-05-19T04:09:01.373Z,636.00
2019-05-19T04:10:01.342Z,672.00
2019-05-19T04:11:01.333Z,716.00
2019-05-19T04:12:01.329Z,760.00
2019-05-19T04:13:01.326Z,800.00
2019-05-19T04:14:01.317Z,844.00
2019-05-19T04:15:01.296Z,892.00
2019-05-19T04:16:01.287Z,940.00
2019-05-19T04:17:01.288Z,988.00
2019-05-19T04:18:01.271Z,1036.00
2019-05-19T04:19:01.260Z,1084.00
2019-05-19T04:20:01.574Z,1132.00
2019-05-19T04:21:01.243Z,1176.00
2019-05-19T04:22:01.244Z,1224.00
2019-05-19T04:23:01.226Z,1272.00
2019-05-19T04:24:01.212Z,1324.00
2019-05-19T04:25:01.207Z,1376.00
2019-05-19T04:26:01.199Z,1436.00
2019-05-19T04:27:01.188Z,1508.00
2019-05-19T04:28:01.191Z,1588.00
2019-05-19T04:29:01.169Z,1676.00
2019-05-19T04:30:01.158Z,1772.00
2019-05-19T04:31:01.159Z,1876.00
2019-05-19T04:32:01.141Z,1992.00
2019-05-19T04:33:01.131Z,2108.00
2019-05-19T04:34:01.122Z,2224.00
2019-05-19T04:35:01.113Z,2332.00
2019-05-19T04:36:01.118Z,2440.00
2019-05-19T04:37:01.094Z,2556.00
2019-05-19T04:38:01.085Z,2684.00
2019-05-19T04:39:01.076Z,2812.00
2019-05-19T04:40:01.072Z,2912.00
2019-05-19T04:41:01.057Z,2988.00
2019-05-19T04:42:01.049Z,3064.00
2019-05-19T04:43:01.039Z,3140.00
2019-05-19T04:44:01.031Z,3212.00
2019-05-19T04:45:01.028Z,3276.00
2019-05-19T04:46:01.013Z,3316.00
2019-05-19T04:47:01.014Z,3332.00
2019-05-19T04:48:00.997Z,3308.00
2019-05-19T04:49:00.987Z,3284.00
2019-05-19T04:50:00.987Z,3288.00
2019-05-19T04:51:00.976Z,3316.00
2019-05-19T04:52:06.870Z,3324.00
2019-05-19T04:53:00.959Z,3316.00
2019-05-19T04:54:01.045Z,3316.00
2019-05-19T04:55:00.956Z,3296.00
2019-05-19T04:56:00.932Z,3280.00
2019-05-19T04:57:00.923Z,3288.00
2019-05-19T04:58:00.907Z,3300.00
2019-05-19T04:59:00.899Z,3324.00
2019-05-19T05:00:00.892Z,3348.00
2019-05-19T05:01:00.881Z,3376.00
2019-05-19T05:02:00.881Z,3396.00
2019-05-19T05:03:00.866Z,3432.00
2019-05-19T05:04:00.869Z,3460.00
2019-05-19T05:05:00.862Z,3508.00
2019-05-19T05:06:00.837Z,3564.00
2019-05-19T05:07:00.831Z,3628.00
2019-05-19T05:08:00.822Z,3692.00
2019-05-19T05:09:00.811Z,3756.00
2019-05-19T05:10:00.802Z,3808.00
2019-05-19T05:11:00.839Z,3852.00
2019-05-19T05:12:00.787Z,3904.00
2019-05-19T05:13:00.776Z,3976.00
2019-05-19T05:14:00.766Z,4052.00
2019-05-19T05:15:00.758Z,4140.00
2019-05-19T05:16:00.751Z,4228.00
2019-05-19T05:17:01.244Z,4348.00
2019-05-19T05:18:00.732Z,4464.00
2019-05-19T05:19:00.738Z,4584.00
2019-05-19T05:20:00.715Z,4696.00
2019-05-19T05:21:00.707Z,4792.00
2019-05-19T05:22:00.709Z,4884.00
2019-05-19T05:23:00.689Z,4968.00
2019-05-19T05:24:00.681Z,5048.00
2019-05-19T05:25:00.674Z,5136.00
2019-05-19T05:26:00.663Z,5224.00
2019-05-19T05:27:00.657Z,5284.00
2019-05-19T05:28:00.647Z,5332.00
2019-05-19T05:29:00.642Z,5364.00
2019-05-19T05:30:00.631Z,5424.00
2019-05-19T05:31:00.622Z,5480.00
2019-05-19T05:32:00.615Z,5556.00
2019-05-19T05:33:01.866Z,5600.00
2019-05-19T05:34:00.600Z,5640.00
2019-05-19T05:35:00.617Z,5684.00
2019-05-19T05:36:00.621Z,5720.00
2019-05-19T05:37:00.626Z,5712.00
2019-05-19T05:38:00.564Z,5660.00
2019-05-19T05:39:00.558Z,5592.00
2019-05-19T05:40:00.548Z,5516.00
2019-05-19T05:41:00.541Z,5448.00
2019-05-19T05:42:00.533Z,5388.00
2019-05-19T05:43:00.523Z,5332.00
2019-05-19T05:44:00.518Z,5288.00
2019-05-19T05:45:00.509Z,5244.00
2019-05-19T05:46:00.499Z,5216.00
2019-05-19T05:47:00.490Z,5200.00
2019-05-19T05:48:00.483Z,5188.00
2019-05-19T05:49:01.883Z,5212.00
2019-05-19T05:50:00.468Z,5264.00
2019-05-19T05:51:00.457Z,5352.00
2019-05-19T05:52:00.449Z,5448.00
2019-05-19T05:53:00.441Z,5524.00
2019-05-19T05:54:00.433Z,5560.00
2019-05-19T05:55:00.474Z,5488.00
2019-05-19T05:56:00.416Z,5448.00
2019-05-19T05:57:00.410Z,5492.00
2019-05-19T05:58:00.403Z,5488.00
2019-05-19T05:59:00.392Z,5516.00
2019-05-19T06:00:00.434Z,5576.00
2019-05-19T06:01:00.376Z,5704.00
2019-05-19T06:02:00.389Z,6004.00
2019-05-19T06:03:00.455Z,6468.00
2019-05-19T06:04:01.056Z,6784.00
2019-05-19T06:05:00.344Z,7024.00
2019-05-19T06:06:00.335Z,6908.00
2019-05-19T06:07:00.331Z,6860.00
2019-05-19T06:08:00.320Z,6784.00
2019-05-19T06:09:00.312Z,6772.00
2019-05-19T06:10:00.309Z,6944.00
2019-05-19T06:11:00.302Z,7028.00
2019-05-19T06:12:00.290Z,7024.00
2019-05-19T06:13:00.282Z,7096.00
2019-05-19T06:14:00.273Z,7176.00
2019-05-19T06:15:00.272Z,7176.00
2019-05-19T06:16:00.257Z,7352.00
2019-05-19T06:17:00.253Z,7436.00
2019-05-19T06:18:00.242Z,7604.00
2019-05-19T06:19:00.268Z,7796.00
2019-05-19T06:20:02.421Z,8000.00
2019-05-19T06:21:00.323Z,8328.00
2019-05-19T06:22:02.969Z,9216.00
2019-05-19T06:23:00.206Z,9488.00
2019-05-19T06:24:00.197Z,9436.00
2019-05-19T06:25:00.195Z,9784.00
2019-05-19T06:26:00.300Z,10576.00
2019-05-19T06:27:00.323Z,11652.00
2019-05-19T06:28:00.269Z,12416.00
2019-05-19T06:29:00.159Z,12424.00
2019-05-19T06:30:00.162Z,12500.00
2019-05-19T06:31:00.146Z,12804.00
2019-05-19T06:32:00.188Z,13024.00
2019-05-19T06:33:00.183Z,13384.00
2019-05-19T06:34:00.125Z,13680.00
2019-05-19T06:35:00.128Z,13984.00
2019-05-19T06:36:00.115Z,14040.00
2019-05-19T06:37:00.107Z,14068.00
2019-05-19T06:38:00.100Z,13868.00
2019-05-19T06:39:00.209Z,13432.00
2019-05-19T06:40:00.102Z,13268.00
2019-05-19T06:41:00.080Z,14176.00
2019-05-19T06:42:00.225Z,14712.00
2019-05-19T06:43:00.069Z,13728.00
2019-05-19T06:44:03.241Z,13092.00
2019-05-19T06:45:00.064Z,12388.00
2019-05-19T06:46:00.047Z,12400.00
2019-05-19T06:47:00.042Z,12856.00
2019-05-19T06:48:00.038Z,12716.00
2019-05-19T06:49:00.068Z,12452.00
2019-05-19T06:50:00.022Z,13092.00
2019-05-19T06:51:00.019Z,14572.00
2019-05-19T06:52:00.012Z,15968.00
2019-05-19T06:53:13.294Z,18848.00
2019-05-19T06:53:59.997Z,16544.00
2019-05-19T06:54:59.992Z,15356.00
2019-05-19T06:55:59.986Z,15156.00
2019-05-19T06:56:59.981Z,18336.00
2019-05-19T06:57:59.976Z,17504.00
2019-05-19T06:58:59.970Z,15468.00
2019-05-19T06:59:59.964Z,14688.00
2019-05-19T07:00:59.959Z,15420.00
2019-05-19T07:01:59.952Z,16256.00
2019-05-19T07:02:59.947Z,15624.00
2019-05-19T07:03:59.941Z,15720.00
2019-05-19T07:04:59.936Z,19200.00
2019-05-19T07:05:59.930Z,19168.00
2019-05-19T07:06:59.953Z,29216.00
2019-05-19T07:07:59.920Z,30336.00
2019-05-19T07:08:59.915Z,31904.00
2019-05-19T07:09:59.909Z,31360.00
2019-05-19T07:10:59.912Z,32480.00
2019-05-19T07:11:59.904Z,34144.00
2019-05-19T07:12:59.896Z,32640.00
2019-05-19T07:14:02.906Z,33536.00
2019-05-19T07:14:59.888Z,33728.00
2019-05-19T07:15:59.893Z,34720.00
2019-05-19T07:16:59.881Z,32256.00
2019-05-19T07:17:59.877Z,32384.00
2019-05-19T07:18:59.874Z,25664.00
2019-05-19T07:19:59.871Z,34304.00
2019-05-19T07:20:59.869Z,35104.00
2019-05-19T07:21:59.865Z,34528.00
2019-05-19T07:22:59.864Z,33120.00
2019-05-19T07:23:59.861Z,40192.00
2019-05-19T07:24:59.860Z,41888.00
2019-05-19T07:25:59.862Z,39936.00
2019-05-19T07:26:59.855Z,44672.00
2019-05-19T07:27:59.854Z,46912.00
2019-05-19T07:28:59.860Z,46880.00
2019-05-19T07:29:59.850Z,45568.00
2019-05-19T07:30:59.849Z,49760.00
2019-05-19T07:31:59.848Z,42624.00
2019-05-19T07:32:59.848Z,45504.00
2019-05-19T07:33:59.846Z,40768.00
2019-05-19T07:34:59.848Z,40960.00
2019-05-19T07:35:59.849Z,41824.00
2019-05-19T07:36:59.845Z,39680.00
2019-05-19T07:37:59.845Z,36928.00
2019-05-19T07:38:59.845Z,30944.00
2019-05-19T07:39:59.853Z,32448.00
2019-05-19T07:40:59.845Z,28512.00
2019-05-19T07:41:59.844Z,29248.00
2019-05-19T07:42:59.844Z,27584.00
2019-05-19T07:43:59.844Z,20256.00
2019-05-19T07:44:59.844Z,19424.00
2019-05-19T07:45:59.843Z,14972.00
2019-05-19T07:46:59.844Z,14820.00
2019-05-19T07:47:59.846Z,14672.00
2019-05-19T07:48:59.841Z,16340.00
2019-05-19T07:49:59.839Z,18496.00
2019-05-19T07:50:59.840Z,45600.00
2019-05-19T07:51:59.838Z,45376.00
2019-05-19T07:52:59.836Z,44576.00
2019-05-19T07:53:59.833Z,49504.00
2019-05-19T07:54:59.837Z,36032.00
2019-05-19T07:55:59.833Z,53952.00
2019-05-19T07:56:59.858Z,44512.00
2019-05-19T07:57:59.831Z,62688.00
2019-05-19T07:58:59.831Z,51520.00
2019-05-19T07:59:59.831Z,63328.00
2019-05-19T08:00:59.841Z,62848.00
2019-05-19T08:01:59.833Z,65760.00
2019-05-19T08:02:59.834Z,66624.00
2019-05-19T08:03:59.836Z,65280.00
2019-05-19T08:04:59.839Z,56448.00
2019-05-19T08:05:59.839Z,65248.00
2019-05-19T08:06:59.842Z,62656.00
2019-05-19T08:07:59.847Z,63744.00
2019-05-19T08:08:59.848Z,60416.00
2019-05-19T08:09:59.851Z,59296.00
2019-05-19T08:10:59.854Z,64352.00
2019-05-19T08:11:59.858Z,59424.00
2019-05-19T08:12:59.867Z,59232.00
2019-05-19T08:13:59.866Z,61792.00
2019-05-19T08:14:59.870Z,21536.00
2019-05-19T08:15:59.875Z,24032.00
2019-05-19T08:16:59.883Z,17440.00
2019-05-19T08:17:59.882Z,15000.00
2019-05-19T08:18:59.884Z,14760.00
2019-05-19T08:19:59.886Z,14528.00
2019-05-19T08:20:59.889Z,13880.00
2019-05-19T08:21:59.890Z,15436.00
2019-05-19T08:22:59.890Z,13156.00
2019-05-19T08:24:01.153Z,13024.00
2019-05-19T08:24:59.891Z,13288.00
2019-05-19T08:25:59.891Z,13676.00
2019-05-19T08:26:59.891Z,18304.00
2019-05-19T08:28:08.304Z,17056.00
2019-05-19T08:28:59.890Z,17344.00
2019-05-19T08:29:59.889Z,19008.00
2019-05-19T08:30:59.888Z,30080.00
2019-05-19T08:31:59.889Z,28160.00
2019-05-19T08:32:59.887Z,37888.00
2019-05-19T08:33:59.894Z,53504.00
2019-05-19T08:34:59.884Z,54784.00
2019-05-19T08:35:59.884Z,54944.00
2019-05-19T08:36:59.884Z,29344.00
2019-05-19T08:37:59.883Z,36512.00
2019-05-19T08:38:59.884Z,35072.00
2019-05-19T08:39:59.886Z,67296.00
2019-05-19T08:40:59.897Z,54304.00
2019-05-19T08:41:59.887Z,64224.00
2019-05-19T08:42:59.889Z,38304.00
2019-05-19T08:43:59.890Z,30464.00
2019-05-19T08:44:59.892Z,28512.00
2019-05-19T08:45:59.894Z,25376.00
2019-05-19T08:46:59.895Z,33568.00
2019-05-19T08:47:59.897Z,38144.00
2019-05-19T08:48:59.902Z,24352.00
2019-05-19T08:49:59.902Z,28416.00
2019-05-19T08:50:59.900Z,70272.00
2019-05-19T08:51:59.904Z,47584.00
2019-05-19T08:52:59.910Z,32992.00
2019-05-19T08:54:12.550Z,33216.00
2019-05-19T08:54:59.906Z,55840.00
2019-05-19T08:55:59.908Z,68352.00
2019-05-19T08:56:59.909Z,56352.00
2019-05-19T08:57:59.912Z,60704.00
2019-05-19T08:58:59.914Z,70400.00
2019-05-19T08:59:59.921Z,47776.00
2019-05-19T09:00:59.923Z,61120.00
2019-05-19T09:01:59.929Z,73728.00
2019-05-19T09:02:59.928Z,76352.00
2019-05-19T09:03:59.933Z,73568.00
2019-05-19T09:04:59.942Z,71104.00
2019-05-19T09:05:59.944Z,81632.00
2019-05-19T09:06:59.948Z,78720.00
2019-05-19T09:07:59.957Z,72928.00
2019-05-19T09:08:59.959Z,69760.00
2019-05-19T09:09:59.964Z,69152.00
2019-05-19T09:10:59.970Z,68544.00
2019-05-19T09:11:59.977Z,64384.00
2019-05-19T09:12:59.983Z,69952.00
2019-05-19T09:13:59.990Z,64896.00
2019-05-19T09:15:00.001Z,64640.00
2019-05-19T09:16:00.002Z,64704.00
2019-05-19T09:17:00.033Z,63008.00
2019-05-19T09:18:00.016Z,58944.00
2019-05-19T09:19:00.023Z,55872.00
2019-05-19T09:20:00.028Z,38304.00
2019-05-19T09:21:00.036Z,59168.00
2019-05-19T09:22:00.042Z,25728.00
2019-05-19T09:23:00.050Z,24608.00
2019-05-19T09:24:00.061Z,24832.00
2019-05-19T09:25:00.063Z,20256.00
2019-05-19T09:26:00.065Z,19552.00
2019-05-19T09:27:00.078Z,17696.00
2019-05-19T09:28:00.088Z,24640.00
2019-05-19T09:29:00.100Z,15600.00
2019-05-19T09:30:00.081Z,18688.00
2019-05-19T09:31:00.092Z,17888.00
2019-05-19T09:32:00.091Z,15972.00
2019-05-19T09:33:00.195Z,26368.00
2019-05-19T09:34:00.195Z,18560.00
2019-05-19T09:35:00.098Z,18208.00
2019-05-19T09:36:00.101Z,19776.00
2019-05-19T09:37:00.102Z,29312.00
2019-05-19T09:38:00.110Z,22656.00
2019-05-19T09:39:00.105Z,36128.00
2019-05-19T09:40:00.121Z,31392.00
2019-05-19T09:41:00.163Z,20704.00
2019-05-19T09:42:00.211Z,17952.00
2019-05-19T09:43:00.116Z,17888.00
2019-05-19T09:44:00.150Z,18240.00
2019-05-19T09:45:00.266Z,19840.00
2019-05-19T09:46:00.116Z,19520.00
2019-05-19T09:47:00.167Z,22976.00
2019-05-19T09:48:00.219Z,25984.00
2019-05-19T09:49:00.172Z,25888.00
2019-05-19T09:50:00.225Z,34560.00
2019-05-19T09:51:00.121Z,33600.00
2019-05-19T09:52:00.126Z,29664.00
2019-05-19T09:53:00.228Z,33824.00
2019-05-19T09:54:00.126Z,33440.00
2019-05-19T09:55:00.177Z,33792.00
2019-05-19T09:56:00.177Z,36416.00
2019-05-19T09:57:01.031Z,40288.00
2019-05-19T09:58:00.129Z,39616.00
2019-05-19T09:59:00.132Z,43968.00
2019-05-19T10:00:00.193Z,54240.00
2019-05-19T10:01:00.137Z,52256.00
2019-05-19T10:02:00.138Z,59584.00
2019-05-19T10:03:00.143Z,63488.00
2019-05-19T10:04:00.144Z,68672.00
2019-05-19T10:05:00.198Z,65120.00
2019-05-19T10:06:00.252Z,58368.00
2019-05-19T10:07:00.194Z,47680.00
2019-05-19T10:08:00.215Z,44640.00
2019-05-19T10:09:00.218Z,46048.00
2019-05-19T10:10:00.231Z,47904.00
2019-05-19T10:11:00.229Z,31424.00
2019-05-19T10:12:00.247Z,42816.00
2019-05-19T10:13:00.290Z,26496.00
2019-05-19T10:14:00.196Z,26176.00
2019-05-19T10:15:00.267Z,22848.00
2019-05-19T10:16:01.058Z,21792.00
2019-05-19T10:17:00.366Z,21696.00
2019-05-19T10:18:00.265Z,22944.00
2019-05-19T10:19:00.270Z,24928.00
2019-05-19T10:20:00.229Z,30912.00
2019-05-19T10:21:00.283Z,45184.00
2019-05-19T10:22:00.366Z,38688.00
2019-05-19T10:23:00.348Z,33568.00
2019-05-19T10:24:00.243Z,24896.00
2019-05-19T10:25:20.519Z,22016.00
2019-05-19T10:26:00.250Z,22592.00
2019-05-19T10:27:00.254Z,38272.00
2019-05-19T10:28:00.257Z,51904.00
2019-05-19T10:29:00.263Z,51904.00
2019-05-19T10:30:00.404Z,33056.00
2019-05-19T10:31:00.269Z,33472.00
2019-05-19T10:32:00.274Z,52864.00
2019-05-19T10:33:00.279Z,50528.00
2019-05-19T10:34:00.282Z,52608.00
2019-05-19T10:35:00.302Z,52576.00
2019-05-19T10:36:00.298Z,51168.00
2019-05-19T10:37:00.301Z,45248.00
2019-05-19T10:38:00.306Z,27456.00
2019-05-19T10:39:00.312Z,45984.00
2019-05-19T10:40:00.322Z,48960.00
2019-05-19T10:41:00.323Z,52224.00
2019-05-19T10:42:00.328Z,56288.00
2019-05-19T10:43:00.334Z,58784.00
2019-05-19T10:44:00.887Z,60576.00
2019-05-19T10:45:00.355Z,52128.00
2019-05-19T10:46:00.385Z,47872.00
2019-05-19T10:47:00.362Z,26336.00
2019-05-19T10:48:00.370Z,29696.00
2019-05-19T10:49:00.378Z,48832.00
2019-05-19T10:50:01.187Z,29984.00
2019-05-19T10:51:00.390Z,39008.00
2019-05-19T10:52:00.398Z,32032.00
2019-05-19T10:53:00.403Z,32224.00
2019-05-19T10:54:00.408Z,41408.00
2019-05-19T10:55:00.415Z,38656.00
2019-05-19T10:56:02.025Z,32800.00
2019-05-19T10:57:00.427Z,26080.00
2019-05-19T10:58:00.431Z,29792.00
2019-05-19T10:59:00.438Z,29824.00
2019-05-19T11:00:00.448Z,28160.00
2019-05-19T11:01:00.449Z,24608.00
2019-05-19T11:02:00.454Z,26592.00
2019-05-19T11:03:00.461Z,23424.00
2019-05-19T11:04:00.468Z,27264.00
2019-05-19T11:05:00.470Z,26272.00
2019-05-19T11:06:00.474Z,24544.00
2019-05-19T11:07:00.479Z,21856.00
2019-05-19T11:08:00.530Z,22016.00
2019-05-19T11:09:00.489Z,22560.00
2019-05-19T11:10:04.396Z,23296.00
2019-05-19T11:11:00.499Z,23776.00
2019-05-19T11:12:00.500Z,24128.00
2019-05-19T11:13:00.504Z,24416.00
2019-05-19T11:14:00.510Z,25312.00
2019-05-19T11:15:00.510Z,26368.00
2019-05-19T11:16:00.518Z,26784.00
2019-05-19T11:17:00.519Z,27648.00
2019-05-19T11:18:00.519Z,29376.00
2019-05-19T11:19:00.527Z,30592.00
2019-05-19T11:20:00.527Z,31744.00
2019-05-19T11:21:00.534Z,32512.00
2019-05-19T11:22:00.534Z,32992.00
2019-05-19T11:23:01.790Z,33888.00
2019-05-19T11:24:00.612Z,35680.00
2019-05-19T11:25:00.545Z,37920.00
2019-05-19T11:26:00.559Z,37472.00
2019-05-19T11:27:00.553Z,40864.00
2019-05-19T11:28:00.558Z,43360.00
2019-05-19T11:29:00.564Z,46784.00
2019-05-19T11:30:00.575Z,48736.00
2019-05-19T11:31:00.573Z,50208.00
2019-05-19T11:32:00.585Z,51904.00
2019-05-19T11:33:00.586Z,51936.00
2019-05-19T11:34:00.593Z,50112.00
2019-05-19T11:35:00.605Z,50432.00
2019-05-19T11:36:00.606Z,51392.00
2019-05-19T11:37:00.614Z,51136.00
2019-05-19T11:38:00.623Z,50240.00
2019-05-19T11:39:01.187Z,47968.00
2019-05-19T11:40:00.642Z,44768.00
2019-05-19T11:41:00.650Z,41024.00
2019-05-19T11:42:00.655Z,38400.00
2019-05-19T11:43:00.665Z,35136.00
2019-05-19T11:44:00.674Z,35104.00
2019-05-19T11:45:00.697Z,35552.00
2019-05-19T11:46:00.690Z,35552.00
2019-05-19T11:47:00.699Z,33728.00
2019-05-19T11:48:00.707Z,32992.00
2019-05-19T11:49:00.718Z,31712.00
2019-05-19T11:50:00.745Z,30784.00
2019-05-19T11:51:00.741Z,30816.00
2019-05-19T11:52:00.738Z,31648.00
2019-05-19T11:53:00.748Z,32000.00
2019-05-19T11:54:00.752Z,34624.00
2019-05-19T11:55:00.768Z,27840.00
2019-05-19T11:56:07.141Z,23360.00
2019-05-19T11:57:00.775Z,43808.00
2019-05-19T11:58:01.483Z,47744.00
2019-05-19T11:59:00.801Z,46400.00
2019-05-19T12:00:00.803Z,44864.00
2019-05-19T12:01:00.806Z,42720.00
2019-05-19T12:02:00.811Z,43904.00
2019-05-19T12:03:00.883Z,46976.00
2019-05-19T12:04:00.846Z,46912.00
2019-05-19T12:05:00.840Z,36864.00
2019-05-19T12:06:00.845Z,36608.00
2019-05-19T12:07:00.861Z,35584.00
2019-05-19T12:08:00.858Z,40736.00
2019-05-19T12:09:00.870Z,38592.00
2019-05-19T12:10:00.874Z,38912.00
2019-05-19T12:11:00.907Z,20416.00
2019-05-19T12:12:00.890Z,18976.00
2019-05-19T12:13:00.900Z,17536.00
2019-05-19T12:14:00.904Z,16608.00
2019-05-19T12:15:00.960Z,14432.00